Time,TemperatureF,DewpointF,PressureIn,WindDirection,WindDirectionDegrees,WindSpeedMPH,WindSpeedGustMPH,Humidity,HourlyPrecipIn,Conditions,Clouds,dailyrainin,SoftwareType,DateUTC
2013-01-29 00:08:00,14.7,12.3,29.78,NNE,24,0.0,2.0,90,0.00,,,0.00,Wunderground v.1.15,2013-01-29 05:08:00,
2013-01-29 00:18:00,14.8,12.4,29.78,NNE,24,0.0,0.0,90,0.00,,,0.00,Wunderground v.1.15,2013-01-29 05:18:00,
2013-01-29 00:28:00,14.9,12.5,29.79,NNE,24,0.0,0.0,90,0.00,,,0.00,Wunderground v.1.15,2013-01-29 05:28:00,
2013-01-29 00:38:00,15.0,12.6,29.79,NNE,24,0.0,0.0,90,0.00,,,0.00,Wunderground v.1.15,2013-01-29 05:38:00,
2013-01-29 00:48:00,15.0,12.6,29.78,NNE,24,0.0,0.0,90,0.00,,,0.00,Wunderground v.1.15,2013-01-29 05:48:00,
2013-01-29 00:58:00,14.9,12.5,29.78,NNE,24,0.0,0.0,90,0.00,,,0.00,Wunderground v.1.15,2013-01-29 05:58:00,
2013-01-29 01:08:00,14.8,12.4,29.78,NNE,24,0.0,3.0,90,0.00,,,0.00,Wunderground v.1.15,2013-01-29 06:08:00,
2013-01-29 01:18:00,14.5,12.1,29.78,NNE,24,0.0,0.0,90,0.00,,,0.00,Wunderground v.1.15,2013-01-29 06:18:00,
2013-01-29 01:28:00,14.1,11.7,29.78,NNE,24,0.0,2.0,90,0.00,,,0.00,Wunderground v.1.15,2013-01-29 06:28:00,
2013-01-29 01:38:00,13.6,11.2,29.79,NNE,24,1.0,1.0,90,0.00,,,0.00,Wunderground v.1.15,2013-01-29 06:38:00,
2013-01-29 01:48:00,13.6,11.5,29.80,NNE,24,0.0,0.0,91,0.00,,,0.00,Wunderground v.1.15,2013-01-29 06:48:00,
2013-01-29 01:58:00,13.7,11.6,29.80,NNE,24,0.0,0.0,91,0.00,,,0.00,Wunderground v.1.15,2013-01-29 06:58:00,
2013-01-29 02:08:00,13.6,11.5,29.80,NNE,24,0.0,2.0,91,0.00,,,0.00,Wunderground v.1.15,2013-01-29 07:08:00,
2013-01-29 02:18:00,13.4,11.0,29.80,NNE,24,0.0,0.0,90,0.00,,,0.00,Wunderground v.1.15,2013-01-29 07:18:00,
2013-01-29 02:28:00,13.1,10.7,29.79,NNE,24,1.0,1.0,90,0.00,,,0.00,Wunderground v.1.15,2013-01-29 07:28:00,
2013-01-29 02:38:00,13.1,11.0,29.80,NNE,24,0.0,3.0,91,0.00,,,0.00,Wunderground v.1.15,2013-01-29 07:38:00,
2013-01-29 02:48:00,12.1,9.7,29.79,NNE,24,2.0,2.0,90,0.00,,,0.00,Wunderground v.1.15,2013-01-29 07:48:00,
2013-01-29 02:58:00,12.0,9.9,29.81,NNE,24,1.0,1.0,91,0.00,,,0.00,Wunderground v.1.15,2013-01-29 07:58:00,
2013-01-29 03:08:00,11.6,9.5,29.80,NNE,24,0.0,4.0,91,0.00,,,0.00,Wunderground v.1.15,2013-01-29 08:08:00,
2013-01-29 03:18:00,12.1,10.2,29.81,NNE,24,0.0,0.0,92,0.00,,,0.00,Wunderground v.1.15,2013-01-29 08:18:00,
2013-01-29 03:28:00,12.2,10.1,29.81,NNE,24,0.0,0.0,91,0.00,,,0.00,Wunderground v.1.15,2013-01-29 08:28:00,
2013-01-29 03:38:00,12.0,9.9,29.81,NNE,24,0.0,0.0,91,0.00,,,0.00,Wunderground v.1.15,2013-01-29 08:38:00,
2013-01-29 03:48:00,11.6,9.2,29.81,NNE,24,0.0,0.0,90,0.00,,,0.00,Wunderground v.1.15,2013-01-29 08:48:00,
2013-01-29 03:58:00,11.3,9.2,29.80,NNE,24,0.0,0.0,91,0.00,,,0.00,Wunderground v.1.15,2013-01-29 08:58:00,
2013-01-29 04:08:00,11.2,8.8,29.81,NNE,24,0.0,3.0,90,0.00,,,0.00,Wunderground v.1.15,2013-01-29 09:08:00,
2013-01-29 04:18:00,11.2,9.1,29.81,NNE,24,0.0,0.0,91,0.00,,,0.00,Wunderground v.1.15,2013-01-29 09:18:00,
2013-01-29 04:28:00,10.8,8.4,29.81,NNE,24,0.0,0.0,90,0.00,,,0.00,Wunderground v.1.15,2013-01-29 09:28:00,
2013-01-29 04:38:00,10.5,8.1,29.81,NNE,24,0.0,0.0,90,0.00,,,0.00,Wunderground v.1.15,2013-01-29 09:38:00,
2013-01-29 04:48:00,10.5,8.4,29.82,NNE,24,0.0,0.0,91,0.00,,,0.00,Wunderground v.1.15,2013-01-29 09:48:00,
2013-01-29 04:58:00,10.5,8.4,29.83,NNE,24,1.0,1.0,91,0.00,,,0.00,Wunderground v.1.15,2013-01-29 09:58:00,
2013-01-29 05:08:00,10.7,8.6,29.82,NNE,24,0.0,2.0,91,0.00,,,0.00,Wunderground v.1.15,2013-01-29 10:08:00,
2013-01-29 05:18:00,11.4,9.3,29.82,NNE,24,0.0,0.0,91,0.00,,,0.00,Wunderground v.1.15,2013-01-29 10:18:00,
2013-01-29 05:28:00,10.4,8.0,29.83,NNE,24,1.0,1.0,90,0.00,,,0.00,Wunderground v.1.15,2013-01-29 10:28:00,
2013-01-29 05:38:00,9.6,7.0,29.84,NNE,24,1.0,1.0,89,0.00,,,0.00,Wunderground v.1.15,2013-01-29 10:38:00,
2013-01-29 05:48:00,10.5,8.4,29.84,NNE,24,0.0,1.0,91,0.00,,,0.00,Wunderground v.1.15,2013-01-29 10:48:00,
2013-01-29 05:58:00,10.9,8.8,29.83,NNE,24,0.0,0.0,91,0.00,,,0.00,Wunderground v.1.15,2013-01-29 10:58:00,
2013-01-29 06:08:00,10.4,8.0,29.83,NNE,24,0.0,3.0,90,0.00,,,0.00,Wunderground v.1.15,2013-01-29 11:08:00,
2013-01-29 06:18:00,10.9,8.8,29.83,NNE,24,0.0,0.0,91,0.00,,,0.00,Wunderground v.1.15,2013-01-29 11:18:00,
2013-01-29 06:28:00,10.9,8.8,29.83,NNE,24,0.0,1.0,91,0.00,,,0.00,Wunderground v.1.15,2013-01-29 11:28:00,
2013-01-29 06:38:00,9.5,6.9,29.83,NNE,24,1.0,1.0,89,0.00,,,0.00,Wunderground v.1.15,2013-01-29 11:38:00,
2013-01-29 06:48:00,10.1,8.0,29.83,NNE,24,0.0,0.0,91,0.00,,,0.00,Wunderground v.1.15,2013-01-29 11:48:00,
2013-01-29 06:58:00,10.8,8.9,29.84,NNE,24,0.0,0.0,92,0.00,,,0.00,Wunderground v.1.15,2013-01-29 11:58:00,
2013-01-29 07:08:00,10.9,8.8,29.84,NNE,24,0.0,4.0,91,0.00,,,0.00,Wunderground v.1.15,2013-01-29 12:08:00,
2013-01-29 07:18:00,9.6,7.0,29.84,NNE,24,1.0,1.0,89,0.00,,,0.00,Wunderground v.1.15,2013-01-29 12:18:00,
2013-01-29 07:28:00,10.4,8.3,29.84,NNE,24,0.0,0.0,91,0.00,,,0.00,Wunderground v.1.15,2013-01-29 12:28:00,
2013-01-29 07:38:00,11.5,9.6,29.84,NNE,24,0.0,0.0,92,0.00,,,0.00,Wunderground v.1.15,2013-01-29 12:38:00,
2013-01-29 07:48:00,11.7,9.3,29.85,NNE,24,0.0,0.0,90,0.00,,,0.00,Wunderground v.1.15,2013-01-29 12:48:00,
2013-01-29 07:58:00,11.5,9.1,29.86,NNE,24,0.0,0.0,90,0.00,,,0.00,Wunderground v.1.15,2013-01-29 12:58:00,
2013-01-29 08:08:00,12.5,10.4,29.87,NNE,24,0.0,2.0,91,0.00,,,0.00,Wunderground v.1.15,2013-01-29 13:08:00,
2013-01-29 08:18:00,13.2,10.8,29.88,NNE,24,0.0,0.0,90,0.00,,,0.00,Wunderground v.1.15,2013-01-29 13:18:00,
2013-01-29 08:28:00,13.5,10.9,29.89,NNE,24,0.0,0.0,89,0.00,,,0.00,Wunderground v.1.15,2013-01-29 13:28:00,
2013-01-29 08:38:00,14.0,11.4,29.89,NNE,24,0.0,0.0,89,0.00,,,0.00,Wunderground v.1.15,2013-01-29 13:38:00,
2013-01-29 08:48:00,14.2,11.0,29.89,NNE,24,0.0,0.0,87,0.00,,,0.00,Wunderground v.1.15,2013-01-29 13:48:00,
2013-01-29 08:58:00,13.9,10.7,29.88,NNE,24,1.0,1.0,87,0.00,,,0.00,Wunderground v.1.15,2013-01-29 13:58:00,
2013-01-29 09:08:00,14.7,11.8,29.89,NNE,24,0.0,3.0,88,0.00,,,0.00,Wunderground v.1.15,2013-01-29 14:08:00,
2013-01-29 09:18:00,14.8,11.1,29.89,SW,234,2.0,2.0,85,0.00,,,0.00,Wunderground v.1.15,2013-01-29 14:18:00,
2013-01-29 09:28:00,14.9,11.7,29.90,SW,234,1.0,1.0,87,0.00,,,0.00,Wunderground v.1.15,2013-01-29 14:28:00,
2013-01-29 09:38:00,16.2,13.3,29.90,WSW,243,1.0,1.0,88,0.00,,,0.00,Wunderground v.1.15,2013-01-29 14:38:00,
2013-01-29 09:48:00,18.1,14.6,29.91,WSW,243,0.0,1.0,86,0.00,,,0.00,Wunderground v.1.15,2013-01-29 14:48:00,
2013-01-29 09:58:00,19.0,15.0,29.90,NE,43,1.0,1.0,84,0.00,,,0.00,Wunderground v.1.15,2013-01-29 14:58:00,
2013-01-29 10:08:00,19.5,15.2,29.90,NE,43,1.0,1.0,83,0.00,,,0.00,Wunderground v.1.15,2013-01-29 15:08:00,
2013-01-29 10:18:00,20.1,15.5,29.90,NE,43,0.0,0.0,82,0.00,,,0.00,Wunderground v.1.15,2013-01-29 15:18:00,
2013-01-29 10:28:00,20.6,15.7,29.90,ESE,112,1.0,1.0,81,0.00,,,0.00,Wunderground v.1.15,2013-01-29 15:28:00,
2013-01-29 10:38:00,21.2,16.0,29.90,ESE,112,0.0,0.0,80,0.00,,,0.01,Wunderground v.1.15,2013-01-29 15:38:00,
2013-01-29 10:48:00,21.4,16.2,29.91,SW,215,1.0,1.0,80,0.00,,,0.01,Wunderground v.1.15,2013-01-29 15:48:00,
2013-01-29 10:58:00,21.5,16.6,29.91,SW,215,1.0,1.0,81,0.04,,,0.02,Wunderground v.1.15,2013-01-29 15:58:00,
2013-01-29 11:08:00,22.0,16.8,29.91,SW,215,0.0,4.0,80,0.00,,,0.02,Wunderground v.1.15,2013-01-29 16:08:00,
2013-01-29 11:18:00,22.3,17.4,29.91,SW,215,0.0,0.0,81,0.00,,,0.03,Wunderground v.1.15,2013-01-29 16:18:00,
2013-01-29 11:28:00,23.4,18.1,29.91,SW,215,0.0,0.0,80,0.00,,,0.03,Wunderground v.1.15,2013-01-29 16:28:00,
2013-01-29 11:38:00,23.8,18.5,29.91,SW,215,0.0,0.0,80,0.00,,,0.04,Wunderground v.1.15,2013-01-29 16:38:00,
2013-01-29 11:48:00,24.8,18.9,29.91,SW,215,0.0,1.0,78,0.00,,,0.05,Wunderground v.1.15,2013-01-29 16:48:00,
2013-01-29 11:58:00,24.2,19.2,29.90,ENE,70,1.0,2.0,81,0.00,,,0.05,Wunderground v.1.15,2013-01-29 16:58:00,
2013-01-29 12:08:00,23.3,18.6,29.89,East,89,2.0,2.0,82,0.00,,,0.06,Wunderground v.1.15,2013-01-29 17:08:00,
2013-01-29 12:18:00,23.5,18.8,29.88,South,173,1.0,2.0,82,0.00,,,0.06,Wunderground v.1.15,2013-01-29 17:18:00,
2013-01-29 12:28:00,23.4,19.0,29.88,South,179,2.0,2.0,83,0.00,,,0.06,Wunderground v.1.15,2013-01-29 17:28:00,
2013-01-29 12:38:00,23.6,18.9,29.88,SSE,149,1.0,2.0,82,0.00,,,0.06,Wunderground v.1.15,2013-01-29 17:38:00,
2013-01-29 12:48:00,23.8,19.1,29.88,South,176,2.0,2.0,82,0.00,,,0.06,Wunderground v.1.15,2013-01-29 17:48:00,
2013-01-29 12:58:00,23.5,18.8,29.86,ESE,119,2.0,2.0,82,0.00,,,0.07,Wunderground v.1.15,2013-01-29 17:58:00,
2013-01-29 13:08:00,23.5,19.1,29.86,ESE,118,1.0,1.0,83,0.00,,,0.07,Wunderground v.1.15,2013-01-29 18:08:00,
2013-01-29 13:18:00,23.8,19.1,29.86,South,184,2.0,2.0,82,0.00,,,0.07,Wunderground v.1.15,2013-01-29 18:18:00,
2013-01-29 13:28:00,24.0,19.3,29.86,SSW,202,1.0,1.0,82,0.00,,,0.07,Wunderground v.1.15,2013-01-29 18:28:00,
2013-01-29 13:38:00,24.1,19.1,29.85,SSW,201,1.0,1.0,81,0.00,,,0.07,Wunderground v.1.15,2013-01-29 18:38:00,
2013-01-29 13:48:00,24.5,19.5,29.85,SSW,201,0.0,0.0,81,0.00,,,0.07,Wunderground v.1.15,2013-01-29 18:48:00,
2013-01-29 13:58:00,25.1,19.8,29.84,SSW,201,0.0,0.0,80,0.00,,,0.08,Wunderground v.1.15,2013-01-29 18:58:00,
2013-01-29 14:08:00,25.9,20.6,29.83,SSW,201,0.0,5.0,80,0.00,,,0.08,Wunderground v.1.15,2013-01-29 19:08:00,
2013-01-29 14:18:00,25.9,20.3,29.82,SSW,201,1.0,1.0,79,0.00,,,0.08,Wunderground v.1.15,2013-01-29 19:18:00,
2013-01-29 14:28:00,25.4,20.4,29.82,SE,130,1.0,1.0,81,0.00,,,0.08,Wunderground v.1.15,2013-01-29 19:28:00,
2013-01-29 14:38:00,25.6,20.9,29.82,ESE,117,0.0,1.0,82,0.00,,,0.08,Wunderground v.1.15,2013-01-29 19:38:00,
2013-01-29 14:48:00,25.6,20.9,29.82,SE,134,1.0,1.0,82,0.00,,,0.08,Wunderground v.1.15,2013-01-29 19:48:00,
2013-01-29 14:58:00,25.7,21.0,29.81,South,190,1.0,3.0,82,0.00,,,0.08,Wunderground v.1.15,2013-01-29 19:58:00,
2013-01-29 15:08:00,25.4,21.2,29.81,South,189,1.0,1.0,84,0.00,,,0.08,Wunderground v.1.15,2013-01-29 20:08:00,
2013-01-29 15:18:00,25.3,21.1,29.82,South,189,2.0,2.0,84,0.00,,,0.08,Wunderground v.1.15,2013-01-29 20:18:00,
2013-01-29 15:28:00,25.2,21.0,29.81,South,186,1.0,1.0,84,0.00,,,0.08,Wunderground v.1.15,2013-01-29 20:28:00,